createdAt,value
2023-05-02T00:02:08.089Z,10.31
2023-05-02T00:04:36.413Z,10.27
2023-05-02T00:07:04.433Z,10.26
2023-05-02T00:09:32.315Z,10.20
2023-05-02T00:11:59.961Z,10.20
2023-05-02T00:14:27.638Z,10.18
2023-05-02T00:17:18.740Z,10.12
2023-05-02T00:19:47.256Z,10.10
2023-05-02T00:22:14.918Z,10.13
2023-05-02T00:24:42.670Z,10.05
2023-05-02T00:27:10.668Z,10.07
2023-05-02T00:29:38.859Z,10.07
2023-05-02T00:32:07.090Z,10.12
2023-05-02T00:34:34.823Z,10.05
2023-05-02T00:37:14.288Z,10.02
2023-05-02T00:39:42.037Z,9.90
2023-05-02T00:42:09.724Z,9.84
2023-05-02T00:44:37.383Z,9.81
2023-05-02T00:47:05.766Z,9.79
2023-05-02T00:49:33.898Z,9.81
2023-05-02T00:52:01.996Z,9.79
2023-05-02T00:54:31.387Z,9.81
2023-05-02T00:56:59.082Z,9.86
2023-05-02T00:59:27.253Z,9.88
2023-05-02T01:02:33.711Z,9.84
2023-05-02T01:05:23.140Z,9.81
2023-05-02T01:08:15.120Z,9.78
2023-05-02T01:10:48.964Z,9.74
2023-05-02T01:13:28.441Z,9.75
2023-05-02T01:16:00.099Z,9.75
2023-05-02T01:18:35.722Z,9.72
2023-05-02T01:21:07.978Z,9.72
2023-05-02T01:23:46.223Z,9.70
2023-05-02T01:26:21.896Z,9.72
2023-05-02T01:29:17.777Z,9.67
2023-05-02T01:31:49.812Z,9.69
2023-05-02T01:34:20.062Z,9.73
2023-05-02T01:37:14.612Z,9.74
2023-05-02T01:39:44.302Z,9.56
2023-05-02T01:42:13.657Z,9.60
2023-05-02T01:44:42.525Z,9.66
2023-05-02T01:47:10.763Z,9.69
2023-05-02T01:50:05.374Z,9.70
2023-05-02T01:52:33.715Z,9.65
2023-05-02T01:55:04.057Z,9.63
2023-05-02T01:57:32.716Z,9.58
2023-05-02T02:00:02.031Z,9.59
2023-05-02T02:02:31.073Z,9.60
2023-05-02T02:05:01.313Z,9.58
2023-05-02T02:07:29.184Z,9.60
2023-05-02T02:09:57.232Z,9.51
2023-05-02T02:12:28.957Z,9.51
2023-05-02T02:15:02.243Z,9.52
2023-05-02T02:17:38.190Z,9.52
2023-05-02T02:20:10.421Z,9.53
2023-05-02T02:22:41.395Z,9.50
2023-05-02T02:25:13.107Z,9.50
2023-05-02T02:27:41.883Z,9.51
2023-05-02T02:30:11.010Z,9.53
2023-05-02T02:32:38.901Z,9.52
2023-05-02T02:35:07.393Z,9.46
2023-05-02T02:37:41.172Z,9.46
2023-05-02T02:40:40.061Z,9.37
2023-05-02T02:43:29.887Z,9.37
2023-05-02T02:46:09.556Z,9.41
2023-05-02T02:48:53.918Z,9.43
2023-05-02T02:51:47.055Z,9.37
2023-05-02T02:54:27.402Z,9.38
2023-05-02T02:57:13.080Z,9.42
2023-05-02T02:59:51.970Z,9.41
2023-05-02T03:02:27.599Z,9.34
2023-05-02T03:04:57.481Z,9.38
2023-05-02T03:07:28.692Z,9.37
2023-05-02T03:09:56.314Z,9.40
2023-05-02T03:12:23.938Z,9.36
2023-05-02T03:14:53.054Z,9.37
2023-05-02T03:17:21.257Z,9.39
2023-05-02T03:19:48.909Z,9.36
2023-05-02T03:22:16.600Z,9.42
2023-05-02T03:24:44.214Z,9.40
2023-05-02T03:27:12.178Z,9.45
2023-05-02T03:29:39.883Z,9.47
2023-05-02T03:32:07.681Z,9.46
2023-05-02T03:34:35.855Z,9.41
2023-05-02T03:37:03.514Z,9.39
2023-05-02T03:39:31.138Z,9.42
2023-05-02T03:41:58.775Z,9.41
2023-05-02T03:44:26.569Z,9.40
2023-05-02T03:46:54.290Z,9.39
2023-05-02T03:49:21.996Z,9.38
2023-05-02T03:51:49.736Z,9.39
2023-05-02T03:54:32.609Z,9.38
2023-05-02T03:57:01.081Z,9.47
2023-05-02T03:59:30.409Z,9.44
2023-05-02T04:01:58.103Z,9.41
2023-05-02T04:04:25.894Z,9.49
2023-05-02T04:06:53.711Z,9.49
2023-05-02T04:09:25.309Z,9.55
2023-05-02T04:11:54.363Z,9.59
2023-05-02T04:14:22.183Z,9.71
2023-05-02T04:16:50.763Z,9.70
2023-05-02T04:19:19.467Z,9.61
2023-05-02T04:21:47.085Z,9.74
2023-05-02T04:24:14.928Z,9.66
2023-05-02T04:26:42.641Z,9.69
2023-05-02T04:30:01.233Z,9.77
2023-05-02T04:32:29.544Z,9.80
2023-05-02T04:34:57.286Z,9.83
2023-05-02T04:37:25.781Z,9.87
2023-05-02T04:39:53.508Z,9.98
2023-05-02T04:42:21.455Z,10.00
2023-05-02T04:44:49.622Z,10.03
2023-05-02T04:47:17.325Z,10.04
2023-05-02T04:50:13.424Z,10.04
2023-05-02T04:52:41.087Z,10.08
2023-05-02T04:55:09.308Z,10.13
2023-05-02T04:57:37.105Z,10.25
2023-05-02T05:00:05.736Z,10.34
2023-05-02T05:02:33.486Z,10.35
2023-05-02T05:05:02.665Z,10.45
2023-05-02T05:07:32.526Z,10.53
2023-05-02T05:10:00.658Z,10.59
2023-05-02T05:12:55.986Z,10.55
2023-05-02T05:15:26.107Z,10.59
2023-05-02T05:17:54.272Z,10.73
2023-05-02T05:24:12.545Z,10.92
2023-05-02T05:26:40.834Z,11.06
2023-05-02T05:29:09.086Z,11.51
2023-05-02T05:31:37.505Z,11.95
2023-05-02T05:34:05.807Z,12.74
2023-05-02T05:37:38.980Z,13.46
2023-05-02T05:40:09.117Z,13.86
2023-05-02T05:46:26.192Z,14.51
2023-05-02T05:48:54.517Z,14.53
2023-05-02T05:51:22.548Z,14.88
2023-05-02T05:53:50.761Z,15.40
2023-05-02T05:56:19.012Z,15.60
2023-05-02T05:58:47.443Z,15.84
2023-05-02T06:01:15.568Z,16.07
2023-05-02T06:03:43.976Z,15.89
2023-05-02T06:06:12.043Z,15.72
2023-05-02T06:08:39.699Z,15.70
2023-05-02T06:11:11.690Z,15.91
2023-05-02T06:13:39.508Z,16.16
2023-05-02T06:16:07.531Z,16.40
2023-05-02T06:19:26.071Z,16.39
2023-05-02T06:21:54.337Z,16.64
2023-05-02T06:24:21.986Z,16.90
2023-05-02T06:26:51.693Z,17.35
2023-05-02T06:29:19.708Z,17.56
2023-05-02T06:31:47.460Z,17.74
2023-05-02T06:34:15.216Z,17.71
2023-05-02T06:36:42.839Z,17.98
2023-05-02T06:39:10.523Z,17.61
2023-05-02T06:41:38.273Z,17.33
2023-05-02T06:44:06.022Z,17.04
2023-05-02T06:46:33.942Z,17.36
2023-05-02T06:49:01.736Z,17.54
2023-05-02T06:51:29.689Z,17.58
2023-05-02T06:53:57.347Z,18.17
2023-05-02T06:56:26.178Z,18.62
2023-05-02T06:58:54.000Z,18.73
2023-05-02T07:01:21.721Z,18.88
2023-05-02T07:03:49.543Z,18.76
2023-05-02T07:06:42.868Z,18.69
2023-05-02T07:09:10.746Z,19.09
2023-05-02T07:11:38.460Z,19.64
2023-05-02T07:14:06.119Z,19.46
2023-05-02T07:16:33.971Z,19.82
2023-05-02T07:19:27.010Z,20.05
2023-05-02T07:21:54.709Z,20.34
2023-05-02T07:24:22.352Z,20.43
2023-05-02T07:26:50.084Z,21.03
2023-05-02T07:29:17.818Z,21.26
2023-05-02T07:31:45.758Z,21.64
2023-05-02T07:34:13.542Z,22.16
2023-05-02T07:36:41.312Z,22.30
2023-05-02T07:39:15.054Z,21.72
2023-05-02T07:41:42.873Z,21.71
2023-05-02T07:44:11.697Z,21.99
2023-05-02T07:46:39.413Z,21.86
2023-05-02T07:49:07.237Z,22.18
2023-05-02T07:51:34.949Z,22.65
2023-05-02T07:54:02.718Z,22.88
2023-05-02T07:56:30.397Z,22.96
2023-05-02T07:59:15.485Z,22.80
2023-05-02T08:01:43.863Z,22.64
2023-05-02T08:04:11.892Z,22.72
2023-05-02T08:06:39.846Z,23.01
2023-05-02T08:09:07.589Z,23.05
2023-05-02T08:11:35.244Z,23.44
2023-05-02T08:14:02.981Z,23.32
2023-05-02T08:16:30.848Z,23.49
2023-05-02T08:18:58.654Z,24.63
2023-05-02T08:21:27.616Z,24.65
2023-05-02T08:23:59.091Z,24.34
2023-05-02T08:26:36.683Z,24.28
2023-05-02T08:29:04.714Z,24.13
2023-05-02T08:31:51.648Z,24.30
2023-05-02T08:34:19.428Z,24.42
2023-05-02T08:36:47.646Z,25.02
2023-05-02T08:39:16.997Z,25.75
2023-05-02T08:41:45.071Z,26.30
2023-05-02T08:44:12.823Z,25.07
2023-05-02T08:46:42.201Z,24.93
2023-05-02T08:49:15.743Z,25.26
2023-05-02T08:51:51.538Z,25.18
2023-05-02T08:54:21.312Z,25.40
2023-05-02T08:56:49.375Z,25.88
2023-05-02T08:59:16.995Z,26.29
2023-05-02T09:01:49.885Z,26.46
2023-05-02T09:04:23.799Z,26.26
2023-05-02T09:07:42.052Z,26.20
2023-05-02T09:10:10.009Z,26.46
2023-05-02T09:12:37.716Z,26.90
2023-05-02T09:15:18.957Z,26.92
2023-05-02T09:17:48.816Z,25.93
2023-05-02T09:20:17.167Z,25.24
2023-05-02T09:22:50.617Z,25.53
2023-05-02T09:25:20.183Z,25.50
2023-05-02T09:28:01.512Z,25.27
2023-05-02T09:30:29.218Z,24.65
2023-05-02T09:32:56.926Z,24.54
2023-05-02T09:35:24.919Z,25.61
2023-05-02T09:37:57.552Z,26.18
2023-05-02T09:40:27.570Z,26.05
2023-05-02T09:42:56.157Z,25.43
2023-05-02T09:45:25.786Z,24.33
2023-05-02T09:47:53.810Z,24.02
2023-05-02T09:50:38.246Z,24.08
2023-05-02T09:53:09.600Z,24.29
2023-05-02T09:55:37.820Z,23.97
2023-05-02T09:58:06.124Z,23.85
2023-05-02T10:00:44.777Z,23.77
2023-05-02T10:03:16.881Z,23.95
2023-05-02T10:05:46.347Z,24.21
2023-05-02T10:08:16.436Z,24.67
2023-05-02T10:10:50.374Z,24.82
2023-05-02T10:13:21.497Z,24.84
2023-05-02T10:16:00.702Z,24.99
2023-05-02T10:18:52.623Z,24.58
2023-05-02T10:21:27.398Z,24.35
2023-05-02T10:23:55.397Z,23.72
2023-05-02T10:26:23.648Z,23.25
2023-05-02T10:28:52.259Z,23.15
2023-05-02T10:31:21.604Z,23.61
2023-05-02T10:34:17.069Z,23.67
2023-05-02T10:36:44.934Z,23.59
2023-05-02T10:39:12.704Z,23.03
2023-05-02T10:41:41.951Z,22.44
2023-05-02T10:44:09.869Z,22.34
2023-05-02T10:46:43.350Z,22.10
2023-05-02T10:49:12.866Z,21.93
2023-05-02T10:51:42.279Z,21.98
2023-05-02T10:54:35.241Z,22.08
2023-05-02T10:57:04.483Z,21.73
2023-05-02T10:59:34.831Z,21.49
2023-05-02T11:02:04.527Z,21.18
2023-05-02T11:05:04.205Z,21.07
2023-05-02T11:07:34.514Z,20.56
2023-05-02T11:10:17.709Z,20.39
2023-05-02T11:12:49.377Z,20.20
2023-05-02T11:15:23.152Z,20.25
2023-05-02T11:18:03.976Z,20.08
2023-05-02T11:20:32.570Z,19.90
2023-05-02T11:23:26.762Z,19.79
2023-05-02T11:26:00.709Z,19.59
2023-05-02T11:28:48.016Z,19.42
2023-05-02T11:31:28.606Z,18.91
2023-05-02T11:34:15.387Z,18.20
2023-05-02T11:36:43.481Z,17.85
2023-05-02T11:39:21.126Z,17.61
2023-05-02T11:42:39.986Z,17.26
2023-05-02T11:45:09.265Z,17.16
2023-05-02T11:47:37.521Z,17.28
2023-05-02T11:50:06.143Z,17.40
2023-05-02T11:52:41.911Z,17.55
2023-05-02T11:55:15.023Z,17.58
2023-05-02T11:57:43.060Z,18.03
2023-05-02T12:00:12.011Z,18.17
2023-05-02T12:02:42.461Z,18.17
2023-05-02T12:05:12.550Z,18.16
2023-05-02T12:07:49.187Z,18.41
2023-05-02T12:10:17.272Z,18.77
2023-05-02T12:12:45.088Z,19.14
2023-05-02T12:15:13.420Z,19.43
2023-05-02T12:17:43.698Z,19.78
2023-05-02T12:20:12.493Z,19.75
2023-05-02T12:22:40.580Z,20.21
2023-05-02T12:25:08.771Z,21.09
2023-05-02T12:27:38.185Z,22.25
2023-05-02T12:30:06.811Z,22.62
2023-05-02T12:32:36.525Z,23.04
2023-05-02T12:35:04.657Z,23.26
2023-05-02T12:37:32.428Z,24.39
2023-05-02T12:40:00.804Z,25.19
2023-05-02T12:42:28.929Z,25.78
2023-05-02T12:44:57.111Z,25.92
2023-05-02T12:47:25.376Z,26.24
2023-05-02T12:49:56.415Z,27.21
2023-05-02T12:52:48.416Z,27.78
2023-05-02T12:55:27.355Z,27.75
2023-05-02T12:58:02.164Z,27.53
2023-05-02T13:00:35.320Z,26.72
2023-05-02T13:03:04.126Z,25.83
2023-05-02T13:05:31.933Z,25.62
2023-05-02T13:07:59.917Z,25.17
2023-05-02T13:10:28.361Z,24.54
2023-05-02T13:12:56.104Z,23.60
2023-05-02T13:15:23.959Z,22.65
2023-05-02T13:17:52.525Z,22.19
2023-05-02T13:20:20.461Z,22.21
2023-05-02T13:23:13.006Z,21.78
2023-05-02T13:25:40.987Z,21.57
2023-05-02T13:28:08.836Z,21.84
2023-05-02T13:30:37.001Z,22.12
2023-05-02T13:33:05.384Z,22.26
2023-05-02T13:35:35.277Z,22.26
2023-05-02T13:38:03.963Z,22.36
2023-05-02T13:40:31.770Z,22.21
2023-05-02T13:42:59.572Z,22.08
2023-05-02T13:45:27.431Z,22.67
2023-05-02T13:47:55.315Z,23.81
2023-05-02T13:50:23.121Z,24.02
2023-05-02T13:52:51.245Z,23.94
2023-05-02T13:55:19.811Z,24.30
2023-05-02T13:57:48.042Z,23.93
2023-05-02T14:00:16.388Z,23.37
2023-05-02T14:02:44.254Z,23.47
2023-05-02T14:05:12.093Z,23.27
2023-05-02T14:07:39.864Z,22.88
2023-05-02T14:10:08.556Z,22.81
2023-05-02T14:12:36.321Z,22.55
2023-05-02T14:15:04.525Z,22.17
2023-05-02T14:17:32.547Z,22.11
2023-05-02T14:20:00.729Z,22.58
2023-05-02T14:22:28.785Z,22.81
2023-05-02T14:24:56.473Z,22.69
2023-05-02T14:27:25.748Z,22.51
2023-05-02T14:29:53.733Z,22.61
2023-05-02T14:32:21.798Z,22.94
2023-05-02T14:34:49.472Z,22.75
2023-05-02T14:37:17.430Z,22.80
2023-05-02T14:39:47.440Z,22.63
2023-05-02T14:42:16.209Z,22.25
2023-05-02T14:44:43.990Z,22.35
2023-05-02T14:47:12.298Z,22.41
2023-05-02T14:54:07.804Z,21.10
2023-05-02T14:56:35.727Z,21.25
2023-05-02T14:59:04.028Z,21.45
2023-05-02T15:01:31.894Z,21.46
2023-05-02T15:04:06.506Z,21.51
2023-05-02T15:06:36.001Z,21.54
2023-05-02T15:09:05.167Z,21.52
2023-05-02T15:11:33.130Z,21.29
2023-05-02T15:14:01.069Z,21.02
2023-05-02T15:16:29.803Z,20.83
2023-05-02T15:19:25.244Z,20.86
2023-05-02T15:21:57.685Z,20.80
2023-05-02T15:24:25.883Z,20.61
2023-05-02T15:26:53.601Z,20.62
2023-05-02T15:29:21.410Z,20.65
2023-05-02T15:31:50.224Z,20.58
2023-05-02T15:34:18.150Z,20.57
2023-05-02T15:36:47.624Z,20.56
2023-05-02T15:39:15.344Z,20.53
2023-05-02T15:41:43.749Z,20.31
2023-05-02T15:44:12.052Z,20.26
2023-05-02T15:46:42.385Z,20.25
2023-05-02T15:49:10.394Z,20.25
2023-05-02T15:51:38.358Z,20.31
2023-05-02T15:54:09.533Z,20.34
2023-05-02T15:56:37.758Z,20.30
2023-05-02T15:59:05.514Z,20.21
2023-05-02T16:01:33.324Z,20.25
2023-05-02T16:04:01.454Z,20.49
2023-05-02T16:06:30.466Z,20.71
2023-05-02T16:09:48.235Z,20.76
2023-05-02T16:12:16.123Z,20.67
2023-05-02T16:15:03.638Z,20.77
2023-05-02T16:17:31.947Z,20.55
2023-05-02T16:20:02.535Z,20.46
2023-05-02T16:22:30.744Z,20.43
2023-05-02T16:24:58.630Z,20.29
2023-05-02T16:27:26.947Z,20.25
2023-05-02T16:29:54.822Z,20.17
2023-05-02T16:32:23.889Z,20.16
2023-05-02T16:35:00.054Z,20.25
2023-05-02T16:37:27.871Z,20.21
2023-05-02T16:40:21.420Z,20.15
2023-05-02T16:42:49.284Z,19.99
2023-05-02T16:45:17.015Z,19.97
2023-05-02T16:47:45.028Z,20.02
2023-05-02T16:50:12.760Z,20.05
2023-05-02T16:52:40.496Z,20.05
2023-05-02T16:55:09.036Z,20.05
2023-05-02T16:57:36.882Z,20.01
2023-05-02T17:00:05.495Z,19.86
2023-05-02T17:02:33.934Z,19.78
2023-05-02T17:05:02.466Z,19.65
2023-05-02T17:07:30.353Z,19.58
2023-05-02T17:09:58.214Z,19.63
2023-05-02T17:12:25.969Z,19.62
2023-05-02T17:14:53.812Z,19.56
2023-05-02T17:17:23.573Z,19.51
2023-05-02T17:19:51.466Z,19.43
2023-05-02T17:22:19.213Z,19.37
2023-05-02T17:24:52.828Z,19.32
2023-05-02T17:27:20.701Z,19.26
2023-05-02T17:29:48.672Z,19.11
2023-05-02T17:32:16.522Z,18.99
2023-05-02T17:34:45.051Z,18.94
2023-05-02T17:37:13.030Z,18.94
2023-05-02T17:39:40.799Z,18.92
2023-05-02T17:42:08.571Z,18.90
2023-05-02T17:44:36.358Z,18.91
2023-05-02T17:47:04.672Z,18.91
2023-05-02T17:49:33.755Z,18.86
2023-05-02T17:52:01.620Z,18.84
2023-05-02T17:54:29.482Z,18.85
2023-05-02T17:56:57.336Z,18.79
2023-05-02T17:59:25.217Z,18.73
2023-05-02T18:01:53.573Z,18.73
2023-05-02T18:04:21.411Z,18.73
2023-05-02T18:06:49.854Z,18.67
2023-05-02T18:09:17.766Z,18.64
2023-05-02T18:11:45.689Z,18.58
2023-05-02T18:14:13.656Z,18.57
2023-05-02T18:16:47.088Z,18.50
2023-05-02T18:19:16.002Z,18.45
2023-05-02T18:21:44.942Z,18.48
2023-05-02T18:24:12.770Z,18.50
2023-05-02T18:26:40.611Z,18.49
2023-05-02T18:29:09.356Z,18.44
2023-05-02T18:31:40.320Z,18.40
2023-05-02T18:34:08.410Z,18.33
2023-05-02T18:36:39.575Z,18.28
2023-05-02T18:39:08.938Z,18.27
2023-05-02T18:41:39.298Z,18.15
2023-05-02T18:44:10.500Z,18.16
2023-05-02T18:46:38.469Z,18.18
2023-05-02T18:49:09.066Z,18.08
2023-05-02T18:51:53.623Z,18.01
2023-05-02T18:54:23.393Z,18.03
2023-05-02T18:56:51.678Z,18.13
2023-05-02T18:59:19.318Z,18.14
2023-05-02T19:15:49.268Z,17.75
2023-05-02T19:18:17.290Z,17.61
2023-05-02T19:24:59.468Z,17.56
2023-05-02T19:27:27.472Z,17.61
2023-05-02T19:29:57.525Z,17.57
2023-05-02T19:32:25.414Z,17.46
2023-05-02T19:40:57.883Z,16.85
2023-05-02T19:43:25.724Z,16.77
2023-05-02T19:47:11.880Z,16.84
2023-05-02T19:49:39.660Z,16.59
2023-05-02T19:52:10.617Z,16.65
2023-05-02T19:54:38.394Z,16.63
2023-05-02T19:57:06.089Z,16.58
2023-05-02T19:59:33.742Z,16.55
2023-05-02T20:02:01.891Z,16.51
2023-05-02T20:04:29.519Z,16.51
2023-05-02T20:06:57.137Z,16.45
2023-05-02T20:09:25.220Z,16.40
2023-05-02T20:11:52.872Z,16.29
2023-05-02T20:14:20.509Z,16.28
2023-05-02T20:16:48.352Z,16.27
2023-05-02T20:19:19.978Z,16.25
2023-05-02T20:21:49.603Z,16.18
2023-05-02T20:24:17.397Z,16.12
2023-05-02T20:26:45.132Z,15.99
2023-05-02T20:29:12.946Z,15.93
2023-05-02T20:31:43.402Z,15.86
2023-05-02T20:34:11.148Z,15.80
2023-05-02T20:36:39.095Z,15.80
2023-05-02T20:39:09.152Z,15.74
2023-05-02T20:41:37.808Z,15.73
2023-05-02T20:44:06.390Z,15.70
2023-05-02T20:46:34.062Z,15.69
2023-05-02T20:56:36.315Z,15.44
2023-05-02T20:59:02.690Z,15.28
2023-05-02T21:01:32.780Z,15.29
2023-05-02T21:03:59.271Z,15.23
2023-05-02T21:06:26.089Z,15.25
2023-05-02T21:08:54.455Z,15.23
2023-05-02T21:11:21.347Z,15.15
2023-05-02T21:14:52.340Z,15.12
2023-05-02T21:17:18.850Z,14.98
2023-05-02T21:19:45.315Z,14.90
2023-05-02T21:22:11.620Z,14.94
2023-05-02T21:24:37.991Z,14.97
2023-05-02T21:27:04.907Z,14.96
2023-05-02T21:29:33.080Z,14.90
2023-05-02T21:31:59.561Z,14.76
2023-05-02T21:35:29.161Z,14.64
2023-05-02T21:37:55.795Z,14.58
2023-05-02T21:40:22.137Z,14.62
2023-05-02T21:42:48.498Z,14.62
2023-05-02T21:45:15.122Z,14.55
2023-05-02T21:47:41.450Z,14.57
2023-05-02T21:50:08.018Z,14.57
2023-05-02T21:52:34.383Z,14.48
2023-05-02T21:55:00.764Z,14.43
2023-05-02T21:57:28.849Z,14.36
2023-05-02T21:59:55.146Z,14.35
2023-05-02T22:02:22.899Z,14.21
2023-05-02T22:04:50.253Z,14.00
2023-05-02T22:07:16.564Z,13.83
2023-05-02T22:09:42.871Z,13.67
2023-05-02T22:12:09.202Z,13.58
2023-05-02T22:14:44.402Z,13.53
2023-05-02T22:17:12.966Z,13.50
2023-05-02T22:19:40.067Z,13.48
2023-05-02T22:22:06.769Z,13.46
2023-05-02T22:25:23.582Z,13.46
2023-05-02T22:27:50.210Z,13.43
2023-05-02T22:30:16.733Z,13.41
2023-05-02T22:32:43.131Z,13.40
2023-05-02T22:35:10.074Z,13.35
2023-05-02T22:37:36.493Z,13.33
2023-05-02T22:40:03.459Z,13.40
2023-05-02T22:42:30.151Z,13.44
2023-05-02T22:44:56.515Z,13.42
2023-05-02T22:47:23.028Z,13.40
2023-05-02T22:49:50.333Z,13.38
2023-05-02T22:52:17.622Z,13.29
2023-05-02T22:54:44.252Z,13.27
2023-05-02T22:57:10.548Z,13.28
2023-05-02T22:59:37.010Z,13.29
2023-05-02T23:02:03.726Z,13.23
2023-05-02T23:04:32.311Z,13.19
2023-05-02T23:06:59.185Z,13.17
2023-05-02T23:09:25.560Z,13.05
2023-05-02T23:11:52.026Z,13.00
2023-05-02T23:14:21.149Z,12.92
2023-05-02T23:16:49.234Z,12.94
2023-05-02T23:19:16.483Z,12.98
2023-05-02T23:21:42.781Z,12.91
2023-05-02T23:24:09.987Z,12.87
2023-05-02T23:26:36.255Z,12.89
2023-05-02T23:29:02.567Z,12.82
2023-05-02T23:31:29.194Z,12.80
2023-05-02T23:33:55.551Z,12.78
2023-05-02T23:36:21.881Z,12.69
2023-05-02T23:38:48.474Z,12.69
2023-05-02T23:41:15.025Z,12.74
2023-05-02T23:43:41.357Z,12.80
2023-05-02T23:46:07.696Z,12.80
2023-05-02T23:48:35.659Z,12.77
2023-05-02T23:51:01.998Z,12.73
2023-05-02T23:53:50.634Z,12.74
2023-05-02T23:56:16.942Z,12.68
2023-05-02T23:59:08.496Z,12.70
